Extreme weather reports worldwide

Low visibility

Station
 
Location
 
Name
 
Wind
Knots
Gust
Knots
Vis
SM
Temp/Dew
C
Baro
inHg
METAR
 
MWX RKJB Piseo-ri (Muan), KR Muan International Airport 2 0.06 11/11 30.00 RKJB 211700Z AUTO 10002KT 0100 R01/0100N FG NCD 11/11 Q1016
KMWN 36 47 0.06 6/6 KMWN 211652Z 21036G47KT 1/16SM FG VV001 06/06 RMK SHRAE20
OSD ESNZ Östersund, SE Åre Östersund Airport 3 0.09 1/1 29.47 ESNZ 211750Z AUTO VRB03KT 0150 R12/1200U R30/0600N FG OVC001/// 01/01 Q0998
LIVP 4 0.12 1/1 30.21 LIVP 211655Z 09004KT 0200 FG VV/// 01/01 Q1023 RMK MON INVIS VAL INVIS VIS MIN 0200
AKL NZAA Auckland, NZ Auckland International Airport 1 0.19 13/13 30.15 NZAA 211730Z AUTO 10001KT 0300 R23L/0700D R05R/P2000N FG BKN060/// 13/13 Q1021 BECMG 9999 NSW

Station
 
Location
 
Name
 
Wind
Knots
Gust
Knots
Vis
SM
Temp/Dew
C
Baro
inHg
METAR
 
LIVR 4 0.19 2/1 30.18 LIVR 211655Z 34004KT 0300 FG VV/// 02/01 Q1022 RMK MON INVIS VIS MIN 0300
KSMP 3 0.25 0/-1 30.02 KSMP 211756Z AUTO VRB03KT 1/4SM SN FG VV005 00/M01 A3002 RMK AO2 SLP186 P0018 60056 T00001011 10011 20000 53009 FZRANO $
KAVK Alva, US Alva Regional Airport 5 0.25 13/13 30.02 KAVK 211755Z AUTO 13005KT 1/4SM FG OVC003 13/13 A3002 RMK AO2 PWINO TSNO
GTF KGTF Great Falls, US Great Falls International Airport 7 0.25 0/-1 29.83 KGTF 211753Z 32007KT 1/4SM FZFG BKN002 OVC060 M01/M02 A2983 RMK AO2 SLP143 T10061017 10000 21044 53003
KCUT Custer, US Custer County Airport 4 0.25 0/-1 29.89 KCUT 211753Z AUTO 06004KT M1/4SM FZFG VV002 M01/M01 A2989 RMK AO2 SLP139 I1001 I6011 T10061011 11006 21017 58011
KQEY 1 0.25 11/11 29.72 KQEY 211750Z AUTO 07001KT M0400 FG CLR 11/11 A2972 RMK A02 TSNO
KQEW 1 0.25 10/10 30.00 KQEW 211750Z AUTO 25001KT M0400 // CLR 10/10 A3000 RMK A02 TSNO
TNM SCRM Isla Rey Jorge, AQ Teniente Rodolfo Marsh Martin Base 29 0.31 -1/-1 29.38 SCRM 211800Z 34029KT 0500 BLSN BKN002 OVC007 M01/M01 Q0995 NOSIG
ESKS Strängnäs, SE Strängnäs Air Base 3 0.34 3/3 29.47 ESKS 211750Z AUTO 06003KT 0550 R15/1800D R33/1700D FG OVC002/// 03/03 Q0998
DUT PADU Unalaska, US Unalaska Airport 31 42 0.5 6/4 29.94 PADU 211758Z 09031G42KT 1/2SM -RA FG OVC022 06/04 A2994 RMK AO2 PK WND 09038/1758 P0000
KTS PFKT Brevig Mission, US Brevig Mission Airport 8 0.5 3/3 30.66 PFKT 211756Z AUTO 22008KT 1/2SM -RA FG OVC003 04/03 A3066 RMK AO2 SLP383 P0000 60000 T00390033 10044 20039 51005
TLA PATE Teller, US Teller Airport 14 0.5 3/3 30.62 PATE 211756Z AUTO 21014KT 1/2SM FG OVC002 04/04 A3062 RMK AO2 SLP376 60002 T00390039 10044 20033 50006
K13K 9 0.5 10/10 30.05 K13K 211755Z AUTO 10009KT 1/2SM FG OVC002 11/11 A3005 RMK AO2 T01070105 10108 20082 60001
KAAO Wichita, US Colonel James Jabara Airport 5 0.5 11/11 30.02 KAAO 211754Z AUTO 12005KT 1/2SM FG OVC002 12/11 A3002 RMK AO2 SLP167 T01170111 10117 20089 58018
ICT KICT Wichita, US Wichita Eisenhower National Airport 6 0.5 11/11 30.01 KICT 211753Z 15006KT 1/2SM R01L/3500V5000FT -DZ BR OVC002 12/12 A3001 RMK AO2 SFC VIS 3/4 SLP163 P0000 60002 T01170117 10117 20089 58015
BTM KBTM Butte, US Bert Mooney Airport 7 0.5 1/-1 29.88 KBTM 211753Z AUTO 32007KT 1/2SM SN FG BKN016 BKN023 OVC042 01/M01 A2988 RMK AO2 SNB35 SLP129 P0001 60001 T00111011 10044 21006 53008
TSF LIPH Treviso, IT Treviso-Sant'Angelo Airport 1 0.62 12/12 30.21 LIPH 211750Z AUTO VRB01KT 1000 0900W R07/1400D BR OVC020/// 12/12 Q1023
HON KHON Huron, US Huron Regional Airport 0 0.75 0/-1 30.19 KHON 211755Z AUTO 00000KT 3/4SM -SN BR SCT005 OVC024 M01/M02 A3019 RMK AO2 SLP238 P0005 60014 T10061017 10000 21011 50008
K3AU 7 0.75 12/12 30.03 K3AU 211755Z AUTO 15007KT 3/4SM BR OVC002 12/12 A3003 RMK AO2
K1K1 8 0.75 11/10 30.03 K1K1 211755Z AUTO 16008KT 3/4SM BR OVC002 11/11 A3003 RMK AO2 T01100109 10110 20080
YAT CYAT Attawapiskat, CA Attawapiskat Airport 4 0.75 0/0 30.09 CYAT 211752Z AUTO 22004KT 3/4SM -SN SCT004 OVC008 00/M00 A3009 RMK ICG SLP193
KDAW Rochester, US Skyhaven Airport 3 0.75 12/12 30.25 KDAW 211751Z AUTO 12003KT 3/4SM BR OVC004 13/12 A3025 RMK AO2 SLP240 60002 T01280122 10133 20111 56027
YYW CYYW Armstrong, CA Armstrong Airport 3 0.75 0/0 29.95 CYYW 211700Z AUTO 10003KT 360V170 3/4SM -SN BKN009 OVC015 00/00 A2995 RMK SLP163
VCE LIPZ Venice, IT Venice Marco Polo Airport 4 0.81 11/11 30.21 LIPZ 211750Z 13004KT 1300 R04R/P1500N BR NSC 11/11 Q1023 NOSIG
EVG ESND SE Sveg Airport 0 0.81 1/1 29.50 ESND 211750Z AUTO 00000KT 1300 R09/P2000N FG SCT001/// OVC015/// 01/01 Q0999
IAB KIAB Wichita, US Mc Connell Air Force Base 8 0.88 12/12 30.01 KIAB 211756Z AUTO 16008KT 7/8SM R19/4500V5000FT BR OVC002 12/12 A3001 RMK AO2 SLP165 60001 T01230121 10123 20092
RMI LIPR Rimini, IT Federico Fellini International Airport 2 0.93 12/11 30.24 LIPR 211750Z 24002KT 1500 BR NSC 12/11 Q1024
OER ESNO Örnsköldsvik, SE Örnsköldsvik Airport 3 0.93 2/2 29.53 ESNO 211750Z AUTO 35003KT 320V020 1500 BR OVC001/// 02/02 Q1000
TRE EGPU Balemartine, GB Tiree Airport 30 0.93 10/9 29.29 EGPU 211720Z AUTO 02030KT 340V040 1500 -RA BKN007/// BKN016/// 10/09 Q0992
RKNF Noinbong, KR Whang Ryeong Helipad 19 0.99 4/4 29.92 RKNF 211751Z 25019KT 1600 BR SCT001 BKN180 04/04 A2992 RMK CIG180
KQFX 0 0.99 8/8 29.99 KQFX 211750Z AUTO 00000KT 1600 BR BKN002 08/08 A2999 RMK A02 TSNO
YMT CYMT Chibougamau, CA Chapais Airport 8 16 1 0/-1 29.89 CYMT 211758Z AUTO 11008G16KT 1SM -SN BKN009 OVC014 M00/M01 A2989 RMK ICG SLP142
PSM KPSM Portsmouth, US Portsmouth International at Pease Airport 3 1 13/13 30.24 KPSM 211756Z 10003KT 1SM R34/P6000FT BR OVC003 14/13 A3024 RMK AO2A DZE34 SLP243 P0000 60000 T01370134 10137 20122 57025
DAY KDAY Dayton, US James M Cox Dayton International Airport 9 1 16/16 30.22 KDAY 211756Z 33009KT 1SM R06L/6000VP6000FT BR BKN004 OVC009 17/17 A3022 RMK AO2 RAB33E56 SLP232 P0000 60000 T01670167 10189 20161 51007 $
BKX KBKX Brookings, US Brookings Regional Airport 0 1 0/-1 30.19 KBKX 211756Z AUTO 00000KT 1SM UP BR BKN008 OVC012 01/M01 A3019 RMK AO2 UPB20E23B41SNE20B23E41 CIG 007V011 SLP254 P0005 60006 T00061011 10006 21017 51020 FZRANO RVRNO
SVW PASV Sparrevohn, US Sparrevohn LRRS Airport 3 1 -5/-5 30.53 PASV 211755Z AUTO 08003KT 1SM -SHSN BR BKN002 M05/M05 A3053 RMK AO2 SNB1655E1656SHSNB1656 SLP371 P0000 60000 T10541052 11004 21024 57008 $
MLS KMLS Miles City, US Frank Wiley Field 5 1 0/0 29.95 KMLS 211755Z AUTO 08005KT 1SM -SN BR OVC008 01/M01 A2995 RMK AO2 P0001 T00061006
KK88 8 1 10/10 30.07 KK88 211755Z AUTO 08008KT 1SM OVC002 11/11 A3007 RMK AO1 60002 T01050105 10105 20085
KI68 7 1 18/18 30.21 KI68 211755Z AUTO 28007KT 1SM BR OVC016 19/19 A3021 RMK AO1 T01860186 10198 20156
EDK KEQA El Dorado, US Captain Jack Thomas El Dorado Airport 7 1 13/12 30.02 KEQA 211755Z AUTO 15007KT 1SM BR OVC002 13/12 A3002 RMK AO2
CCB KCCB Upland, US Cable Airport 5 1 17/17 29.88 KCCB 211755Z AUTO VRB05KT 1SM BR BKN005 17/17 A2988 RMK AO2
STJ KSTJ St Joseph, US Rosecrans Memorial Airport 4 1 7/6 30.13 KSTJ 211753Z 06004KT 1SM -RA BR FEW009 OVC014 08/06 A3013 RMK AO2 LTG DSNT N RAB42 SLP206 P0001 60001 T00780061 10078 20028 56012 RVRNO
RWF KRWF Redwood Falls, US Redwood Falls Municipal Airport 0 1 0/-3 30.18 KRWF 211753Z AUTO 00000KT 1SM -SN BKN024 OVC036 01/M03 A3018 RMK AO2 SNB37 SLP230 P0000 60000 T00061033 10017 20006 55002
MVY KMVY Martha's Vineyard, US Martha's Vineyard Airport 8 1 19/18 30.27 KMVY 211753Z 21008KT 1SM R24/2800VP6000FT BR BKN002 OVC006 19/18 A3027 RMK AO2 VIS 3/4V1 3/4 SLP251 T01940183 10211 20172 56012 $
POC KPOC La Verne, US Brackett Field 0 1 18/16 29.89 KPOC 211747Z 00000KT 1SM BR OVC007 18/16 A2989